createdAt,value
2018-10-18T00:01:03.030Z,73.27
2018-10-18T00:03:31.941Z,77.13
2018-10-18T00:06:00.737Z,68.63
2018-10-18T00:08:29.560Z,68.83
2018-10-18T00:10:58.395Z,90.30
2018-10-18T00:13:27.275Z,71.40
2018-10-18T00:15:56.079Z,69.13
2018-10-18T00:18:24.967Z,65.50
2018-10-18T00:20:53.807Z,74.63
2018-10-18T00:23:22.635Z,70.00
2018-10-18T00:25:51.545Z,71.77
2018-10-18T00:28:20.415Z,75.73
2018-10-18T00:30:49.261Z,73.03
2018-10-18T00:33:18.100Z,71.67
2018-10-18T00:35:46.998Z,80.10
2018-10-18T00:38:15.971Z,87.33
2018-10-18T00:40:45.604Z,78.50
2018-10-18T00:46:12.539Z,99.13
2018-10-18T00:48:41.392Z,93.13
2018-10-18T00:51:10.275Z,98.20
2018-10-18T00:53:39.087Z,223.57
2018-10-18T00:56:07.957Z,104.30
2018-10-18T00:58:36.791Z,108.90
2018-10-18T01:01:06.030Z,197.73
2018-10-18T01:03:34.867Z,99.57
2018-10-18T01:06:03.775Z,100.57
2018-10-18T01:08:32.604Z,103.90
2018-10-18T01:11:01.455Z,106.10
2018-10-18T01:13:30.301Z,107.10
2018-10-18T01:15:59.207Z,91.33
2018-10-18T01:18:27.998Z,94.50
2018-10-18T01:20:56.827Z,95.37
2018-10-18T01:23:25.679Z,100.77
2018-10-18T01:25:54.547Z,96.33
2018-10-18T01:28:23.400Z,103.63
2018-10-18T01:30:52.263Z,106.17
2018-10-18T01:33:21.248Z,101.10
2018-10-18T01:35:50.106Z,101.37
2018-10-18T01:38:19.042Z,102.27
2018-10-18T01:40:47.868Z,94.87
2018-10-18T01:43:17.298Z,92.73
2018-10-18T01:45:46.232Z,99.90
2018-10-18T01:48:15.161Z,99.50
2018-10-18T01:50:43.859Z,88.53
2018-10-18T01:53:12.694Z,119.00
2018-10-18T01:55:41.543Z,103.30
2018-10-18T01:58:10.395Z,115.90
2018-10-18T02:00:39.228Z,115.00
2018-10-18T02:03:08.325Z,92.30
2018-10-18T02:05:37.397Z,79.07
2018-10-18T02:08:06.131Z,112.07
2018-10-18T02:10:34.970Z,80.37
2018-10-18T02:13:03.807Z,190.80
2018-10-18T02:15:32.672Z,69.70
2018-10-18T02:18:01.614Z,77.83
2018-10-18T02:20:30.396Z,88.33
2018-10-18T02:22:59.219Z,75.03
2018-10-18T02:25:28.061Z,80.80
2018-10-18T02:27:56.885Z,71.70
2018-10-18T02:30:25.719Z,75.73
2018-10-18T02:32:54.579Z,72.90
2018-10-18T02:35:23.415Z,67.20
2018-10-18T02:37:52.256Z,64.63
2018-10-18T02:40:21.422Z,74.87
2018-10-18T02:42:50.451Z,74.73
2018-10-18T02:45:19.306Z,66.97
2018-10-18T02:47:48.147Z,69.57
2018-10-18T02:50:16.958Z,70.40
2018-10-18T02:52:45.798Z,77.97
2018-10-18T02:55:14.664Z,72.43
2018-10-18T02:57:43.488Z,76.37
2018-10-18T03:00:12.359Z,72.80
2018-10-18T03:02:41.220Z,62.37
2018-10-18T03:05:10.019Z,61.70
2018-10-18T03:07:38.879Z,65.40
2018-10-18T03:10:08.250Z,58.20
2018-10-18T03:12:37.395Z,61.67
2018-10-18T03:15:07.468Z,58.60
2018-10-18T03:17:36.310Z,62.03
2018-10-18T03:20:05.164Z,56.30
2018-10-18T03:22:34.242Z,56.80
2018-10-18T03:25:03.123Z,53.30
2018-10-18T03:27:35.181Z,62.07
2018-10-18T03:30:04.537Z,61.23
2018-10-18T03:32:33.300Z,52.57
2018-10-18T03:35:02.139Z,54.27
2018-10-18T03:37:31.008Z,50.00
2018-10-18T03:39:59.807Z,50.07
2018-10-18T03:42:28.634Z,59.10
2018-10-18T03:44:57.638Z,54.73
2018-10-18T03:47:26.518Z,57.47
2018-10-18T03:49:55.352Z,58.30
2018-10-18T03:52:24.206Z,58.80
2018-10-18T03:54:53.039Z,60.60
2018-10-18T03:57:21.866Z,56.40
2018-10-18T03:59:50.748Z,57.93
2018-10-18T04:02:19.493Z,58.90
2018-10-18T04:04:48.336Z,70.87
2018-10-18T04:07:17.138Z,65.60
2018-10-18T04:09:45.937Z,67.47
2018-10-18T04:12:14.881Z,67.53
2018-10-18T04:14:43.599Z,64.93
2018-10-18T04:17:12.403Z,63.27
2018-10-18T04:19:41.233Z,62.87
2018-10-18T04:22:10.052Z,64.57
2018-10-18T04:24:38.911Z,66.10
2018-10-18T04:27:07.751Z,61.10
2018-10-18T04:29:37.553Z,51.10
2018-10-18T04:32:06.620Z,47.20
2018-10-18T04:34:35.435Z,43.97
2018-10-18T04:37:04.299Z,47.03
2018-10-18T04:39:33.144Z,49.20
2018-10-18T04:42:02.068Z,43.40
2018-10-18T04:44:30.823Z,48.63
2018-10-18T04:47:06.587Z,47.27
2018-10-18T04:49:35.419Z,50.50
2018-10-18T04:52:04.330Z,45.13
2018-10-18T04:54:33.131Z,45.97
2018-10-18T04:57:02.359Z,43.50
2018-10-18T04:59:31.207Z,45.70
2018-10-18T05:02:00.023Z,50.47
2018-10-18T05:04:28.864Z,46.80
2018-10-18T05:06:57.783Z,44.33
2018-10-18T05:09:26.540Z,46.80
2018-10-18T05:11:55.417Z,47.37
2018-10-18T05:14:24.281Z,50.07
2018-10-18T05:16:53.127Z,49.00
2018-10-18T05:19:21.947Z,48.13
2018-10-18T05:21:50.796Z,50.17
2018-10-18T05:24:19.632Z,49.03
2018-10-18T05:26:48.452Z,54.87
2018-10-18T05:29:17.307Z,51.97
2018-10-18T05:31:46.185Z,50.93
2018-10-18T05:34:15.805Z,56.13
2018-10-18T05:36:44.715Z,50.63
2018-10-18T05:39:13.690Z,48.20
2018-10-18T05:41:42.511Z,49.27
2018-10-18T05:44:11.339Z,43.47
2018-10-18T05:46:40.197Z,47.97
2018-10-18T05:49:09.030Z,47.53
2018-10-18T05:51:37.792Z,44.90
2018-10-18T05:54:06.792Z,49.30
2018-10-18T05:56:35.595Z,45.37
2018-10-18T05:59:04.552Z,49.63
2018-10-18T06:01:33.363Z,46.37
2018-10-18T06:04:02.282Z,45.30
2018-10-18T06:06:31.088Z,43.23
2018-10-18T06:08:59.970Z,45.87
2018-10-18T06:11:30.184Z,50.83
2018-10-18T06:13:58.992Z,45.17
2018-10-18T06:16:27.838Z,44.23
2018-10-18T06:18:56.730Z,47.40
2018-10-18T06:21:25.523Z,41.17
2018-10-18T06:23:54.343Z,46.47
2018-10-18T06:26:23.172Z,45.80
2018-10-18T06:28:52.745Z,41.10
2018-10-18T06:31:21.596Z,43.37
2018-10-18T06:33:50.483Z,45.00
2018-10-18T06:36:19.507Z,41.23
2018-10-18T06:38:48.343Z,49.67
2018-10-18T06:41:17.239Z,39.70
2018-10-18T06:43:45.987Z,40.27
2018-10-18T06:46:14.798Z,45.40
2018-10-18T06:48:43.718Z,42.33
2018-10-18T06:51:12.567Z,43.60
2018-10-18T06:53:41.964Z,44.37
2018-10-18T06:56:10.822Z,45.90
2018-10-18T06:58:39.634Z,40.00
2018-10-18T07:01:08.527Z,45.67
2018-10-18T07:03:37.681Z,39.60
2018-10-18T07:06:06.559Z,42.10
2018-10-18T07:08:35.375Z,46.17
2018-10-18T07:11:05.312Z,45.40
2018-10-18T07:13:34.057Z,45.40
2018-10-18T07:16:03.500Z,40.43
2018-10-18T07:18:32.709Z,44.33
2018-10-18T07:21:01.551Z,43.77
2018-10-18T07:23:30.381Z,47.07
2018-10-18T07:25:59.163Z,44.03
2018-10-18T07:28:28.165Z,45.77
2018-10-18T07:30:56.957Z,39.67
2018-10-18T07:33:25.798Z,42.83
2018-10-18T07:35:54.652Z,45.30
2018-10-18T07:38:23.544Z,47.87
2018-10-18T07:40:52.346Z,49.40
2018-10-18T07:43:21.216Z,54.17
2018-10-18T07:45:50.036Z,50.33
2018-10-18T07:48:18.902Z,49.23
2018-10-18T07:50:47.677Z,53.50
2018-10-18T07:53:16.676Z,53.60
2018-10-18T07:55:45.365Z,52.23
2018-10-18T07:58:14.203Z,51.30
2018-10-18T08:00:43.216Z,56.20
2018-10-18T08:03:12.029Z,56.63
2018-10-18T08:05:41.059Z,56.27
2018-10-18T08:08:10.830Z,45.77
2018-10-18T08:10:39.715Z,38.93
2018-10-18T08:13:08.603Z,39.63
2018-10-18T08:15:37.399Z,26.13
2018-10-18T08:18:06.235Z,19.70
2018-10-18T08:20:35.605Z,19.20
2018-10-18T08:23:05.338Z,14.03
2018-10-18T08:25:34.462Z,7.67
2018-10-18T08:28:03.899Z,8.00
2018-10-18T08:30:33.126Z,5.30
2018-10-18T08:33:02.336Z,5.03
2018-10-18T08:35:31.516Z,4.20
2018-10-18T08:38:00.819Z,5.20
2018-10-18T08:40:29.947Z,4.67
2018-10-18T08:42:59.110Z,6.17
2018-10-18T08:45:28.349Z,7.80
2018-10-18T08:47:57.590Z,11.97
2018-10-18T08:50:26.930Z,10.27
2018-10-18T08:52:56.133Z,10.43
2018-10-18T08:55:25.533Z,9.93
2018-10-18T08:57:54.723Z,10.70
2018-10-18T09:00:24.015Z,8.00
2018-10-18T09:02:53.309Z,12.00
2018-10-18T09:05:22.522Z,10.40
2018-10-18T09:07:51.814Z,14.60
2018-10-18T09:10:21.132Z,12.57
2018-10-18T09:12:50.304Z,16.20
2018-10-18T09:15:19.366Z,15.47
2018-10-18T09:17:48.587Z,14.80
2018-10-18T09:20:17.861Z,10.40
2018-10-18T09:22:46.910Z,13.07
2018-10-18T09:25:16.310Z,12.60
2018-10-18T09:27:45.574Z,14.07
2018-10-18T09:30:14.761Z,15.57
2018-10-18T09:32:44.113Z,11.53
2018-10-18T09:35:13.404Z,14.63
2018-10-18T09:37:42.540Z,13.83
2018-10-18T09:40:11.799Z,14.30
2018-10-18T09:42:40.921Z,15.53
2018-10-18T09:45:11.541Z,18.57
2018-10-18T09:47:40.835Z,14.97
2018-10-18T09:50:11.362Z,13.27
2018-10-18T09:52:40.863Z,15.50
2018-10-18T09:55:11.846Z,11.30
2018-10-18T09:57:41.310Z,17.90
2018-10-18T10:00:14.682Z,12.10
2018-10-18T10:02:50.154Z,10.90
2018-10-18T10:05:20.407Z,8.00
2018-10-18T10:07:49.586Z,10.53
2018-10-18T10:10:18.900Z,10.23
2018-10-18T10:12:48.025Z,8.20
2018-10-18T10:15:17.093Z,7.30
2018-10-18T10:17:46.272Z,12.07
2018-10-18T10:20:15.486Z,7.67
2018-10-18T10:22:44.707Z,9.73
2018-10-18T10:25:14.002Z,12.27
2018-10-18T10:27:43.073Z,8.73
2018-10-18T10:30:12.232Z,8.80
2018-10-18T10:32:41.386Z,10.07
2018-10-18T10:35:10.770Z,12.03
2018-10-18T10:37:40.068Z,13.00
2018-10-18T10:40:10.428Z,11.30
2018-10-18T10:42:40.273Z,10.70
2018-10-18T10:45:10.742Z,11.97
2018-10-18T10:47:40.215Z,6.17
2018-10-18T10:50:09.881Z,7.57
2018-10-18T10:52:39.679Z,16.27
2018-10-18T10:55:09.969Z,9.17
2018-10-18T10:57:39.128Z,13.53
2018-10-18T11:00:08.382Z,12.17
2018-10-18T11:02:37.574Z,7.53
2018-10-18T11:05:06.910Z,11.90
2018-10-18T11:07:36.084Z,10.77
2018-10-18T11:10:05.954Z,10.87
2018-10-18T11:12:35.287Z,9.13
2018-10-18T11:15:04.740Z,10.50
2018-10-18T11:17:33.996Z,7.13
2018-10-18T11:20:03.261Z,8.77
2018-10-18T11:22:32.461Z,8.90
2018-10-18T11:25:01.629Z,9.33
2018-10-18T11:27:30.999Z,11.03
2018-10-18T11:30:00.162Z,7.70
2018-10-18T11:32:31.528Z,9.33
2018-10-18T11:35:00.938Z,7.10
2018-10-18T11:37:30.118Z,14.90
2018-10-18T11:39:59.344Z,8.03
2018-10-18T11:42:28.521Z,7.47
2018-10-18T11:44:57.777Z,6.77
2018-10-18T11:47:27.039Z,6.90
2018-10-18T11:50:00.465Z,6.03
2018-10-18T11:52:30.141Z,6.07
2018-10-18T11:54:59.341Z,5.87
2018-10-18T11:57:28.716Z,11.47
2018-10-18T11:59:57.906Z,8.47
2018-10-18T12:02:27.124Z,8.00
2018-10-18T12:04:56.311Z,9.57
2018-10-18T12:07:25.432Z,8.10
2018-10-18T12:09:54.749Z,7.93
2018-10-18T12:12:23.881Z,8.20
2018-10-18T12:14:53.017Z,6.47
2018-10-18T12:17:22.169Z,7.97
2018-10-18T12:19:51.421Z,9.80
2018-10-18T12:22:20.673Z,7.37
2018-10-18T12:24:49.915Z,7.43
2018-10-18T12:27:19.072Z,6.83
2018-10-18T12:29:48.146Z,10.77
2018-10-18T12:32:17.494Z,6.63
2018-10-18T12:34:47.185Z,7.83
2018-10-18T12:37:16.474Z,7.10
2018-10-18T12:39:45.703Z,7.67
2018-10-18T12:42:14.799Z,6.07
2018-10-18T12:44:43.867Z,8.07
2018-10-18T12:47:13.233Z,8.73
2018-10-18T12:49:43.029Z,8.20
2018-10-18T12:52:13.342Z,5.00
2018-10-18T12:54:42.674Z,8.03
2018-10-18T12:57:13.058Z,7.50
2018-10-18T12:59:42.135Z,7.07
2018-10-18T13:02:11.388Z,4.10
2018-10-18T13:04:40.509Z,11.07
2018-10-18T13:07:09.683Z,7.27
2018-10-18T13:09:38.985Z,10.07
2018-10-18T13:12:08.256Z,7.30
2018-10-18T13:14:37.413Z,7.47
2018-10-18T13:17:07.610Z,5.07
2018-10-18T13:19:36.781Z,8.43
2018-10-18T13:22:06.139Z,4.50
2018-10-18T13:24:35.254Z,7.20
2018-10-18T13:27:04.607Z,9.53
2018-10-18T13:29:33.681Z,7.67
2018-10-18T13:32:03.151Z,5.10
2018-10-18T13:34:32.341Z,8.17
2018-10-18T13:37:01.623Z,10.70
2018-10-18T13:39:30.704Z,5.17
2018-10-18T13:42:00.040Z,9.10
2018-10-18T13:44:29.081Z,14.67
2018-10-18T13:46:58.143Z,9.43
2018-10-18T13:49:27.326Z,8.13
2018-10-18T13:51:56.509Z,6.93
2018-10-18T13:54:25.704Z,5.20
2018-10-18T13:56:54.997Z,3.87
2018-10-18T13:59:36.235Z,7.50
2018-10-18T14:02:06.090Z,6.63
2018-10-18T14:04:35.320Z,6.87
2018-10-18T14:07:04.382Z,6.37
2018-10-18T14:09:33.579Z,5.63
2018-10-18T14:12:02.811Z,9.90
2018-10-18T14:14:31.946Z,4.70
2018-10-18T14:17:01.104Z,7.47
2018-10-18T14:19:30.331Z,6.43
2018-10-18T14:21:59.380Z,7.00
2018-10-18T14:24:28.621Z,11.07
2018-10-18T14:26:57.639Z,6.53
2018-10-18T14:29:27.338Z,2.77
2018-10-18T14:31:56.506Z,6.10
2018-10-18T14:34:25.544Z,2.77
2018-10-18T14:36:54.976Z,9.63
2018-10-18T14:39:24.179Z,7.20
2018-10-18T14:41:53.452Z,5.83
2018-10-18T14:44:22.677Z,4.33
2018-10-18T14:46:51.852Z,5.90
2018-10-18T14:49:21.253Z,6.30
2018-10-18T14:51:50.586Z,6.27
2018-10-18T14:54:19.720Z,5.90
2018-10-18T14:56:48.798Z,8.07
2018-10-18T14:59:18.224Z,5.13
2018-10-18T15:01:47.252Z,6.17
2018-10-18T15:04:16.358Z,7.07
2018-10-18T15:06:45.901Z,4.13
2018-10-18T15:09:15.197Z,4.57
2018-10-18T15:11:44.324Z,4.40
2018-10-18T15:14:13.556Z,4.67
2018-10-18T15:16:42.715Z,5.83
2018-10-18T15:19:11.942Z,1.83
2018-10-18T15:21:41.366Z,2.70
2018-10-18T15:24:10.432Z,10.00
2018-10-18T15:26:41.737Z,3.60
2018-10-18T15:29:10.929Z,4.63
2018-10-18T15:31:40.119Z,6.87
2018-10-18T15:34:09.240Z,4.97
2018-10-18T15:36:38.396Z,5.13
2018-10-18T15:39:09.168Z,9.33
2018-10-18T15:41:39.564Z,5.20
2018-10-18T15:44:09.353Z,6.30
2018-10-18T15:46:38.633Z,10.63
2018-10-18T15:49:08.272Z,7.10
2018-10-18T15:51:37.865Z,4.87
2018-10-18T15:54:07.390Z,4.13
2018-10-18T15:56:36.801Z,5.67
2018-10-18T15:59:06.170Z,5.60
2018-10-18T16:01:35.368Z,4.23
2018-10-18T16:04:04.992Z,5.10
2018-10-18T16:06:34.242Z,5.43
2018-10-18T16:09:05.039Z,4.47
2018-10-18T16:11:34.254Z,7.63
2018-10-18T16:14:03.656Z,4.70
2018-10-18T16:16:32.878Z,4.30
2018-10-18T16:19:02.012Z,4.40
2018-10-18T16:21:34.864Z,8.70
2018-10-18T16:24:10.569Z,4.57
2018-10-18T16:26:47.148Z,6.57
2018-10-18T16:29:17.516Z,4.53
2018-10-18T16:31:56.763Z,5.00
2018-10-18T16:34:27.248Z,7.90
2018-10-18T16:36:57.952Z,7.87
2018-10-18T16:39:27.502Z,3.80
2018-10-18T16:42:03.907Z,4.80
2018-10-18T16:44:34.050Z,7.00
2018-10-18T16:47:03.213Z,5.03
2018-10-18T16:49:32.460Z,4.63
2018-10-18T16:52:01.816Z,8.57
2018-10-18T16:54:31.051Z,4.30
2018-10-18T16:57:00.350Z,6.67
2018-10-18T16:59:29.610Z,3.17
2018-10-18T17:01:58.986Z,8.70
2018-10-18T17:04:28.591Z,4.67
2018-10-18T17:06:57.644Z,9.20
2018-10-18T17:09:27.023Z,7.57
2018-10-18T17:11:57.269Z,4.73
2018-10-18T17:14:26.670Z,4.63
2018-10-18T17:16:56.049Z,5.30
2018-10-18T17:19:25.330Z,4.80
2018-10-18T17:21:54.758Z,5.67
2018-10-18T17:24:24.193Z,6.60
2018-10-18T17:26:53.640Z,5.67
2018-10-18T17:29:23.142Z,5.93
2018-10-18T17:31:52.433Z,8.57
2018-10-18T17:34:21.696Z,6.90
2018-10-18T17:36:51.187Z,5.60
2018-10-18T17:39:20.870Z,5.33
2018-10-18T17:41:50.400Z,6.47
2018-10-18T17:44:19.900Z,5.30
2018-10-18T17:46:49.161Z,10.60
2018-10-18T17:49:18.563Z,9.60
2018-10-18T17:51:47.749Z,4.50
2018-10-18T17:54:17.223Z,8.73
2018-10-18T17:56:46.590Z,6.20
2018-10-18T17:59:15.844Z,6.73
2018-10-18T18:01:45.729Z,5.70
2018-10-18T18:04:15.223Z,5.67
2018-10-18T18:06:44.904Z,5.47
2018-10-18T18:09:14.435Z,5.20
2018-10-18T18:11:43.994Z,4.07
2018-10-18T18:14:13.521Z,7.27
2018-10-18T18:16:43.323Z,7.17
2018-10-18T18:19:13.067Z,6.77
2018-10-18T18:21:42.400Z,6.40
2018-10-18T18:24:11.791Z,6.40
2018-10-18T18:26:45.346Z,5.47
2018-10-18T18:29:10.523Z,4.97
2018-10-18T18:31:40.225Z,8.47
2018-10-18T18:34:09.681Z,4.53
2018-10-18T18:36:39.434Z,4.63
2018-10-18T18:39:10.688Z,5.97
2018-10-18T18:41:40.264Z,7.03
2018-10-18T18:44:09.747Z,6.80
2018-10-18T18:46:39.095Z,5.90
2018-10-18T18:49:08.624Z,7.47
2018-10-18T18:51:38.247Z,3.07
2018-10-18T18:54:07.798Z,6.83
2018-10-18T18:56:37.365Z,7.53
2018-10-18T18:59:06.936Z,5.37
2018-10-18T19:01:36.354Z,9.67
2018-10-18T19:04:06.363Z,7.63
2018-10-18T19:06:36.032Z,8.30
2018-10-18T19:09:07.663Z,6.30
2018-10-18T19:11:37.225Z,9.43
2018-10-18T19:14:07.037Z,7.90
2018-10-18T19:16:36.852Z,8.10
2018-10-18T19:19:06.496Z,7.67
2018-10-18T19:21:36.119Z,10.80
2018-10-18T19:24:06.190Z,9.40
2018-10-18T19:26:35.594Z,9.50
2018-10-18T19:29:05.128Z,6.90
2018-10-18T19:31:34.774Z,13.37
2018-10-18T19:34:04.646Z,9.60
2018-10-18T19:36:34.187Z,9.57
2018-10-18T19:39:04.075Z,7.73
2018-10-18T19:41:33.421Z,11.07
2018-10-18T19:44:03.339Z,11.83
2018-10-18T19:46:32.790Z,9.53
2018-10-18T19:49:02.668Z,10.37
2018-10-18T19:51:32.320Z,9.80
2018-10-18T19:54:01.860Z,9.07
2018-10-18T19:56:31.382Z,10.37
2018-10-18T19:59:00.954Z,12.53
2018-10-18T20:01:30.551Z,8.97
2018-10-18T20:03:59.910Z,11.53
2018-10-18T20:06:29.248Z,13.60
2018-10-18T20:08:58.770Z,9.50
2018-10-18T20:11:28.144Z,10.83
2018-10-18T20:13:57.602Z,10.87
2018-10-18T20:16:28.027Z,12.87
2018-10-18T20:18:57.601Z,13.60
2018-10-18T20:21:27.149Z,10.50
2018-10-18T20:23:57.272Z,10.50
2018-10-18T20:26:27.151Z,10.83
2018-10-18T20:28:56.716Z,8.40
2018-10-18T20:31:25.918Z,12.10
2018-10-18T20:33:55.646Z,9.57
2018-10-18T20:36:25.081Z,10.40
2018-10-18T20:38:54.897Z,13.83
2018-10-18T20:41:24.444Z,8.53
2018-10-18T20:43:53.730Z,10.80
2018-10-18T20:46:23.473Z,7.17
2018-10-18T20:48:53.422Z,10.83
2018-10-18T20:51:22.745Z,12.73
2018-10-18T20:53:52.039Z,10.40
2018-10-18T20:56:22.452Z,11.83
2018-10-18T20:58:52.850Z,8.87
2018-10-18T21:01:22.041Z,7.57
2018-10-18T21:03:52.067Z,9.60
2018-10-18T21:06:21.372Z,10.43
2018-10-18T21:08:50.553Z,11.07
2018-10-18T21:11:20.263Z,7.27
2018-10-18T21:13:49.513Z,8.47
2018-10-18T21:16:18.990Z,7.50
2018-10-18T21:18:48.287Z,14.73
2018-10-18T21:21:19.155Z,13.87
2018-10-18T21:23:48.672Z,8.47
2018-10-18T21:26:18.584Z,11.63
2018-10-18T21:28:48.577Z,10.50
2018-10-18T21:31:19.780Z,14.57
2018-10-18T21:33:49.438Z,11.07
2018-10-18T21:36:19.214Z,13.23
2018-10-18T21:38:48.473Z,16.10
2018-10-18T21:41:17.678Z,10.80
2018-10-18T21:43:47.036Z,10.73
2018-10-18T21:46:16.701Z,11.70
2018-10-18T21:48:46.470Z,12.30
2018-10-18T21:51:15.771Z,10.83
2018-10-18T21:53:45.072Z,10.27
2018-10-18T21:56:14.409Z,8.53
2018-10-18T21:58:43.740Z,7.43
2018-10-18T22:01:13.176Z,7.93
2018-10-18T22:03:42.451Z,9.40
2018-10-18T22:06:11.889Z,12.30
2018-10-18T22:08:42.229Z,11.27
2018-10-18T22:11:11.744Z,10.97
2018-10-18T22:13:40.899Z,9.10
2018-10-18T22:16:10.408Z,9.97
2018-10-18T22:18:39.811Z,9.67
2018-10-18T22:21:08.894Z,8.43
2018-10-18T22:23:38.175Z,11.30
2018-10-18T22:26:07.391Z,8.77
2018-10-18T22:28:36.509Z,17.07
2018-10-18T22:31:06.093Z,12.50
2018-10-18T22:33:35.400Z,12.40
2018-10-18T22:36:04.664Z,13.70
2018-10-18T22:38:34.762Z,12.50
2018-10-18T22:41:03.867Z,7.83
2018-10-18T22:43:33.181Z,9.13
2018-10-18T22:46:02.433Z,7.87
2018-10-18T22:48:32.217Z,10.20
2018-10-18T22:51:01.568Z,12.80
2018-10-18T22:53:31.913Z,14.00
2018-10-18T22:56:01.237Z,16.20
2018-10-18T22:58:30.460Z,13.17
2018-10-18T23:00:59.632Z,13.77
2018-10-18T23:03:28.982Z,8.60
2018-10-18T23:05:58.267Z,16.10
2018-10-18T23:08:27.363Z,7.27
2018-10-18T23:10:56.460Z,11.60
2018-10-18T23:13:25.497Z,11.73
2018-10-18T23:15:54.572Z,9.27
2018-10-18T23:18:23.615Z,16.07
2018-10-18T23:20:52.700Z,9.83
2018-10-18T23:23:21.678Z,12.73
2018-10-18T23:25:50.992Z,10.60
2018-10-18T23:28:20.222Z,8.37
2018-10-18T23:30:49.739Z,13.77
2018-10-18T23:33:19.281Z,11.93
2018-10-18T23:35:48.803Z,9.63
2018-10-18T23:38:18.100Z,9.50
2018-10-18T23:40:47.703Z,9.10
2018-10-18T23:43:17.033Z,12.10
2018-10-18T23:45:46.366Z,11.17
2018-10-18T23:48:15.889Z,7.00
2018-10-18T23:50:45.290Z,12.27
2018-10-18T23:53:14.677Z,8.30
2018-10-18T23:55:43.993Z,9.20
2018-10-18T23:58:13.496Z,10.57
